createdAt,value
2018-09-22T00:00:02.754Z,100149.63
2018-09-22T00:05:07.268Z,100152.69
2018-09-22T00:10:10.745Z,100157.49
2018-09-22T00:15:14.222Z,100162.77
2018-09-22T00:20:17.702Z,100167.69
2018-09-22T00:25:21.143Z,100160.42
2018-09-22T00:30:24.790Z,100165.48
2018-09-22T00:35:28.333Z,100158.56
2018-09-22T00:40:31.792Z,100159.42
2018-09-22T00:45:35.255Z,100158.42
2018-09-22T00:50:38.719Z,100156.59
2018-09-22T00:55:42.166Z,100165.58
2018-09-22T01:00:45.615Z,100171.50
2018-09-22T01:05:49.067Z,100182.19
2018-09-22T01:10:52.524Z,100187.11
2018-09-22T01:15:55.992Z,100189.46
2018-09-22T01:20:59.464Z,100194.13
2018-09-22T01:26:02.906Z,100190.06
2018-09-22T01:31:06.369Z,100202.25
2018-09-22T01:36:09.831Z,100198.83
2018-09-22T01:41:13.286Z,100213.23
2018-09-22T01:46:16.792Z,100214.62
2018-09-22T01:51:20.252Z,100219.17
2018-09-22T01:56:23.706Z,100219.92
2018-09-22T02:01:27.159Z,100226.71
2018-09-22T02:06:30.648Z,100234.00
2018-09-22T02:11:34.112Z,100239.69
2018-09-22T02:16:37.572Z,100251.27
2018-09-22T02:21:41.046Z,100257.91
2018-09-22T02:26:44.491Z,100264.95
2018-09-22T02:31:47.947Z,100269.25
2018-09-22T02:36:51.441Z,100269.52
2018-09-22T02:41:54.899Z,100275.04
2018-09-22T02:46:58.383Z,100267.69
2018-09-22T02:52:01.865Z,100277.77
2018-09-22T02:57:05.355Z,100279.74
2018-09-22T03:02:08.816Z,100289.22
2018-09-22T03:07:12.277Z,100290.84
2018-09-22T03:12:15.727Z,100290.09
2018-09-22T03:17:19.188Z,100293.78
2018-09-22T03:22:22.652Z,100309.66
2018-09-22T03:27:26.114Z,100303.98
2018-09-22T03:32:29.569Z,100321.34
2018-09-22T03:37:33.043Z,100313.86
2018-09-22T03:42:36.499Z,100316.56
2018-09-22T03:47:40.030Z,100315.94
2018-09-22T03:52:43.483Z,100309.31
2018-09-22T03:57:46.940Z,100310.66
2018-09-22T04:02:50.392Z,100300.41
2018-09-22T04:07:53.840Z,100314.06
2018-09-22T04:12:57.303Z,100315.65
2018-09-22T04:18:00.776Z,100332.02
2018-09-22T04:23:04.261Z,100343.33
2018-09-22T04:28:07.779Z,100364.97
2018-09-22T04:33:11.255Z,100357.97
2018-09-22T04:38:14.728Z,100369.38
2018-09-22T04:43:18.181Z,100366.67
2018-09-22T04:48:21.659Z,100374.42
2018-09-22T04:53:25.104Z,100376.41
2018-09-22T04:58:28.575Z,100392.37
2018-09-22T05:03:32.024Z,100397.05
2018-09-22T05:08:35.483Z,100404.44
2018-09-22T05:13:38.930Z,100416.59
2018-09-22T05:18:42.374Z,100414.98
2018-09-22T05:23:45.806Z,100414.62
2018-09-22T05:28:49.230Z,100412.90
2018-09-22T05:33:52.716Z,100422.36
2018-09-22T05:38:56.176Z,100418.80
2018-09-22T05:43:59.612Z,100421.60
2018-09-22T05:49:03.313Z,100429.72
2018-09-22T05:54:07.185Z,100432.42
2018-09-22T05:59:10.971Z,100430.20
2018-09-22T06:04:14.410Z,100437.83
2018-09-22T06:09:17.839Z,100440.44
2018-09-22T06:14:21.587Z,100456.27
2018-09-22T06:19:25.022Z,100462.56
2018-09-22T06:24:28.600Z,100468.55
2018-09-22T06:29:32.037Z,100479.64
2018-09-22T06:34:35.462Z,100495.96
2018-09-22T06:39:38.899Z,100498.17
2018-09-22T06:44:42.319Z,100513.94
2018-09-22T06:49:45.744Z,100511.11
2018-09-22T06:54:49.234Z,100514.30
2018-09-22T06:59:52.626Z,100508.41
2018-09-22T07:04:56.063Z,100525.53
2018-09-22T07:09:59.487Z,100532.40
2018-09-22T07:15:03.116Z,100513.83
2018-09-22T07:20:07.151Z,100528.28
2018-09-22T07:25:10.613Z,100535.24
2018-09-22T07:30:14.098Z,100534.51
2018-09-22T07:35:17.549Z,100538.80
2018-09-22T07:40:21.007Z,100542.89
2018-09-22T07:45:25.832Z,100546.00
2018-09-22T07:50:29.283Z,100547.23
2018-09-22T07:55:32.730Z,100541.21
2018-09-22T08:00:36.202Z,100544.77
2018-09-22T08:05:39.647Z,100547.27
2018-09-22T08:10:43.083Z,100546.77
2018-09-22T08:15:46.535Z,100548.98
2018-09-22T08:20:49.971Z,100550.83
2018-09-22T08:25:53.434Z,100551.07
2018-09-22T08:30:56.970Z,100550.25
2018-09-22T08:36:00.456Z,100553.31
2018-09-22T08:41:03.956Z,100555.93
2018-09-22T08:46:07.422Z,100550.41
2018-09-22T08:51:10.919Z,100568.45
2018-09-22T08:56:14.363Z,100571.53
2018-09-22T09:01:17.855Z,100568.89
2018-09-22T09:06:22.053Z,100571.04
2018-09-22T09:11:25.525Z,100574.42
2018-09-22T09:16:29.012Z,100574.23
2018-09-22T09:21:32.453Z,100572.30
2018-09-22T09:26:35.883Z,100560.30
2018-09-22T09:31:39.368Z,100572.95
2018-09-22T09:36:42.809Z,100558.70
2018-09-22T09:41:46.326Z,100566.19
2018-09-22T09:46:49.823Z,100563.98
2018-09-22T09:51:53.265Z,100566.69
2018-09-22T09:56:56.723Z,100576.35
2018-09-22T10:02:00.157Z,100560.59
2018-09-22T10:07:03.653Z,100559.72
2018-09-22T10:12:07.386Z,100547.27
2018-09-22T10:17:10.849Z,100547.06
2018-09-22T10:22:14.466Z,100556.55
2018-09-22T10:27:18.084Z,100544.39
2018-09-22T10:32:21.585Z,100543.56
2018-09-22T10:37:25.091Z,100539.53
2018-09-22T10:42:28.585Z,100529.23
2018-09-22T10:47:32.117Z,100529.52
2018-09-22T10:52:35.792Z,100519.81
2018-09-22T10:57:39.141Z,100527.08
2018-09-22T11:02:42.652Z,100526.11
2018-09-22T11:07:46.409Z,100532.89
2018-09-22T11:12:51.123Z,100516.41
2018-09-22T11:17:54.853Z,100518.62
2018-09-22T11:22:58.544Z,100535.12
2018-09-22T11:28:02.228Z,100525.77
2018-09-22T11:33:05.671Z,100526.89
2018-09-22T11:38:09.161Z,100521.36
2018-09-22T11:43:12.900Z,100520.02
2018-09-22T11:48:16.379Z,100515.47
2018-09-22T11:53:19.821Z,100510.10
2018-09-22T11:58:23.316Z,100513.30
2018-09-22T12:03:26.780Z,100503.70
2018-09-22T12:08:30.244Z,100497.83
2018-09-22T12:13:34.010Z,100504.20
2018-09-22T12:18:37.534Z,100503.12
2018-09-22T12:23:41.202Z,100481.47
2018-09-22T12:28:44.648Z,100472.23
2018-09-22T12:33:48.164Z,100466.59
2018-09-22T12:38:51.889Z,100467.95
2018-09-22T12:43:55.391Z,100474.45
2018-09-22T12:48:58.954Z,100479.27
2018-09-22T12:54:02.678Z,100485.41
2018-09-22T12:59:06.329Z,100485.05
2018-09-22T13:04:09.824Z,100468.19
2018-09-22T13:09:13.354Z,100457.98
2018-09-22T13:14:16.787Z,100437.33
2018-09-22T13:19:20.240Z,100438.31
2018-09-22T13:24:23.692Z,100442.47
2018-09-22T13:29:27.153Z,100429.79
2018-09-22T13:34:30.847Z,100437.41
2018-09-22T13:39:34.303Z,100449.13
2018-09-22T13:44:37.778Z,100465.97
2018-09-22T13:49:41.248Z,100442.22
2018-09-22T13:54:44.763Z,100427.47
2018-09-22T13:59:48.230Z,100428.92
2018-09-22T14:04:51.809Z,100422.42
2018-09-22T14:09:55.386Z,100429.05
2018-09-22T14:14:58.889Z,100411.09
2018-09-22T14:20:02.343Z,100415.38
2018-09-22T14:25:06.908Z,100396.06
2018-09-22T14:30:10.360Z,100377.47
2018-09-22T14:35:13.863Z,100400.25
2018-09-22T14:40:17.600Z,100420.56
2018-09-22T14:45:21.062Z,100401.11
2018-09-22T14:50:24.559Z,100395.33
2018-09-22T14:55:28.071Z,100373.77
2018-09-22T15:00:31.651Z,100390.66
2018-09-22T15:05:35.099Z,100386.86
2018-09-22T15:10:38.544Z,100374.05
2018-09-22T15:15:42.047Z,100379.47
2018-09-22T15:20:45.508Z,100362.97
2018-09-22T15:25:48.929Z,100342.79
2018-09-22T15:30:52.379Z,100337.03
2018-09-22T15:35:55.840Z,100345.16
2018-09-22T15:40:59.319Z,100342.70
2018-09-22T15:46:02.775Z,100344.69
2018-09-22T15:51:06.390Z,100329.33
2018-09-22T15:56:10.013Z,100340.12
2018-09-22T16:01:13.478Z,100332.64
2018-09-22T16:06:16.977Z,100332.77
2018-09-22T16:11:20.414Z,100321.06
2018-09-22T16:16:23.853Z,100329.67
2018-09-22T16:21:27.287Z,100326.47
2018-09-22T16:26:30.807Z,100323.53
2018-09-22T16:31:34.251Z,100310.64
2018-09-22T16:36:37.723Z,100308.16
2018-09-22T16:41:41.328Z,100311.13
2018-09-22T16:46:44.816Z,100307.67
2018-09-22T16:51:48.260Z,100311.13
2018-09-22T16:56:51.695Z,100308.89
2018-09-22T17:01:55.176Z,100290.59
2018-09-22T17:06:58.628Z,100291.58
2018-09-22T17:12:02.115Z,100297.12
2018-09-22T17:17:05.571Z,100293.79
2018-09-22T17:22:09.046Z,100314.20
2018-09-22T17:27:12.586Z,100304.47
2018-09-22T17:32:16.062Z,100309.88
2018-09-22T17:37:19.664Z,100316.14
2018-09-22T17:42:23.114Z,100303.88
2018-09-22T17:47:26.651Z,100292.78
2018-09-22T17:52:30.175Z,100297.63
2018-09-22T17:57:33.668Z,100298.22
2018-09-22T18:02:37.112Z,100309.79
2018-09-22T18:07:40.554Z,100326.13
2018-09-22T18:12:44.047Z,100330.09
2018-09-22T18:17:47.613Z,100318.98
2018-09-22T18:22:51.117Z,100331.03
2018-09-22T18:27:54.575Z,100311.59
2018-09-22T18:32:58.715Z,100317.76
2018-09-22T18:38:02.152Z,100306.30
2018-09-22T18:43:05.596Z,100302.59
2018-09-22T18:48:09.109Z,100292.63
2018-09-22T18:53:12.565Z,100292.77
2018-09-22T18:58:16.148Z,100308.15
2018-09-22T19:03:20.290Z,100327.72
2018-09-22T19:08:23.914Z,100311.11
2018-09-22T19:13:32.878Z,100324.64
2018-09-22T19:18:41.956Z,100315.53
2018-09-22T19:23:48.915Z,100322.16
2018-09-22T19:28:59.010Z,100320.81
2018-09-22T19:34:05.923Z,100304.94
2018-09-22T19:39:15.174Z,100306.28
2018-09-22T19:44:29.586Z,100318.47
2018-09-22T19:49:36.791Z,100304.70
2018-09-22T19:54:40.446Z,100329.78
2018-09-22T19:59:44.478Z,100334.34
2018-09-22T20:04:48.235Z,100334.97
2018-09-22T20:09:51.728Z,100341.09
2018-09-22T20:14:55.847Z,100324.22
2018-09-22T20:19:59.587Z,100321.41
2018-09-22T20:25:03.534Z,100323.97
2018-09-22T20:30:07.748Z,100323.84
2018-09-22T20:35:11.889Z,100335.42
2018-09-22T20:40:15.863Z,100346.11
2018-09-22T20:45:20.066Z,100341.56
2018-09-22T20:50:24.220Z,100358.80
2018-09-22T20:55:27.947Z,100352.39
2018-09-22T21:00:31.396Z,100340.92
2018-09-22T21:05:34.877Z,100338.35
2018-09-22T21:10:38.412Z,100334.42
2018-09-22T21:15:41.956Z,100346.48
2018-09-22T21:20:45.567Z,100345.48
2018-09-22T21:25:49.203Z,100344.63
2018-09-22T21:30:53.179Z,100337.72
2018-09-22T21:35:57.008Z,100348.05
2018-09-22T21:41:00.740Z,100343.39
2018-09-22T21:46:04.178Z,100332.68
2018-09-22T21:51:07.782Z,100333.16
2018-09-22T21:56:11.250Z,100342.53
2018-09-22T22:01:19.913Z,100338.11
2018-09-22T22:06:23.387Z,100347.09
2018-09-22T22:11:26.920Z,100340.06
2018-09-22T22:16:30.435Z,100347.33
2018-09-22T22:21:34.149Z,100353.25
2018-09-22T22:26:37.730Z,100341.06
2018-09-22T22:31:41.223Z,100342.77
2018-09-22T22:36:44.702Z,100340.70
2018-09-22T22:41:48.174Z,100335.28
2018-09-22T22:46:51.620Z,100342.91
2018-09-22T22:51:55.090Z,100331.09
2018-09-22T22:56:58.568Z,100330.73
2018-09-22T23:02:02.029Z,100325.67
2018-09-22T23:07:05.951Z,100322.11
2018-09-22T23:12:09.378Z,100314.98
2018-09-22T23:17:12.823Z,100303.78
2018-09-22T23:22:16.273Z,100304.89
2018-09-22T23:27:19.739Z,100314.22
2018-09-22T23:32:23.194Z,100324.20
2018-09-22T23:37:26.671Z,100319.28
2018-09-22T23:42:30.138Z,100313.87
2018-09-22T23:47:33.583Z,100328.26
2018-09-22T23:52:37.040Z,100332.32
2018-09-22T23:57:40.508Z,100317.92
